sensor_id;sensor_type;location;lat;lon;timestamp;pressure;altitude;pressure_sealevel;temperature;humidity
84483;BME280;74703;51.284;22.590;2024-01-10T00:03:38;101230.09;;;-12.77;74.06
84483;BME280;74703;51.284;22.590;2024-01-10T00:08:38;101219.59;;;-12.50;72.85
84483;BME280;74703;51.284;22.590;2024-01-10T00:13:39;101229.09;;;-12.46;72.56
84483;BME280;74703;51.284;22.590;2024-01-10T00:18:39;101229.44;;;-12.29;72.79
84483;BME280;74703;51.284;22.590;2024-01-10T00:23:40;101236.19;;;-12.05;71.95
84483;BME280;74703;51.284;22.590;2024-01-10T00:28:41;101252.69;;;-12.08;71.45
84483;BME280;74703;51.284;22.590;2024-01-10T00:33:41;101236.31;;;-12.15;72.08
84483;BME280;74703;51.284;22.590;2024-01-10T00:38:42;101227.34;;;-12.23;71.79
84483;BME280;74703;51.284;22.590;2024-01-10T00:43:42;101214.06;;;-12.34;72.15
84483;BME280;74703;51.284;22.590;2024-01-10T00:48:43;101222.91;;;-12.27;72.98
84483;BME280;74703;51.284;22.590;2024-01-10T00:53:43;101211.22;;;-12.38;72.84
84483;BME280;74703;51.284;22.590;2024-01-10T00:58:44;101223.53;;;-12.30;73.32
84483;BME280;74703;51.284;22.590;2024-01-10T01:03:44;101231.72;;;-12.32;72.50
84483;BME280;74703;51.284;22.590;2024-01-10T01:08:45;101223.97;;;-12.35;73.15
84483;BME280;74703;51.284;22.590;2024-01-10T01:13:46;101208.16;;;-12.58;73.00
84483;BME280;74703;51.284;22.590;2024-01-10T01:18:46;101227.78;;;-12.40;73.64
84483;BME280;74703;51.284;22.590;2024-01-10T01:23:47;101207.19;;;-12.36;74.08
84483;BME280;74703;51.284;22.590;2024-01-10T01:28:47;101200.94;;;-12.41;73.27
84483;BME280;74703;51.284;22.590;2024-01-10T01:33:48;101200.94;;;-12.41;73.22
84483;BME280;74703;51.284;22.590;2024-01-10T01:38:48;101183.53;;;-12.40;73.55
84483;BME280;74703;51.284;22.590;2024-01-10T01:43:49;101183.19;;;-12.09;73.27
84483;BME280;74703;51.284;22.590;2024-01-10T01:48:50;101151.78;;;-12.28;73.00
84483;BME280;74703;51.284;22.590;2024-01-10T01:53:50;101145.97;;;-12.15;72.88
84483;BME280;74703;51.284;22.590;2024-01-10T01:58:53;101160.25;;;-12.14;72.36
84483;BME280;74703;51.284;22.590;2024-01-10T02:03:55;101154.16;;;-12.29;72.43
84483;BME280;74703;51.284;22.590;2024-01-10T02:08:57;101162.56;;;-12.29;72.77
84483;BME280;74703;51.284;22.590;2024-01-10T02:13:58;101137.81;;;-12.48;73.18
84483;BME280;74703;51.284;22.590;2024-01-10T02:18:58;101163.88;;;-12.34;73.76
84483;BME280;74703;51.284;22.590;2024-01-10T02:24:00;101156.16;;;-12.37;73.43
84483;BME280;74703;51.284;22.590;2024-01-10T02:29:01;101140.97;;;-12.62;73.05
84483;BME280;74703;51.284;22.590;2024-01-10T02:34:01;101130.47;;;-12.80;73.50
84483;BME280;74703;51.284;22.590;2024-01-10T02:39:02;101132.47;;;-12.76;74.61
84483;BME280;74703;51.284;22.590;2024-01-10T02:44:03;101113.50;;;-12.84;74.48
84483;BME280;74703;51.284;22.590;2024-01-10T02:49:04;101141.84;;;-12.73;73.15
84483;BME280;74703;51.284;22.590;2024-01-10T02:54:04;101089.91;;;-13.21;73.86
84483;BME280;74703;51.284;22.590;2024-01-10T02:59:05;101103.56;;;-12.94;74.85
84483;BME280;74703;51.284;22.590;2024-01-10T03:04:05;101123.75;;;-12.69;74.74
84483;BME280;74703;51.284;22.590;2024-01-10T03:09:06;101124.84;;;-12.30;74.53
84483;BME280;74703;51.284;22.590;2024-01-10T03:14:10;101102.47;;;-12.15;74.07
84483;BME280;74703;51.284;22.590;2024-01-10T03:19:11;101089.38;;;-11.86;72.32
84483;BME280;74703;51.284;22.590;2024-01-10T03:24:12;101106.34;;;-11.45;69.82
84483;BME280;74703;51.284;22.590;2024-01-10T03:29:12;101073.22;;;-11.40;69.30
84483;BME280;74703;51.284;22.590;2024-01-10T03:34:13;101078.13;;;-11.16;68.30
84483;BME280;74703;51.284;22.590;2024-01-10T03:39:14;101083.06;;;-10.78;67.45
84483;BME280;74703;51.284;22.590;2024-01-10T03:44:14;101091.78;;;-10.59;66.99
84483;BME280;74703;51.284;22.590;2024-01-10T03:49:15;101091.88;;;-10.45;66.30
84483;BME280;74703;51.284;22.590;2024-01-10T03:54:15;101095.53;;;-10.53;66.06
84483;BME280;74703;51.284;22.590;2024-01-10T03:59:16;101068.28;;;-10.47;64.98
84483;BME280;74703;51.284;22.590;2024-01-10T04:04:16;101078.13;;;-10.50;65.40
84483;BME280;74703;51.284;22.590;2024-01-10T04:09:17;101062.75;;;-10.54;65.38
84483;BME280;74703;51.284;22.590;2024-01-10T04:14:17;101080.22;;;-10.16;63.50
84483;BME280;74703;51.284;22.590;2024-01-10T04:19:18;101064.91;;;-10.19;63.24
84483;BME280;74703;51.284;22.590;2024-01-10T04:24:18;101050.06;;;-10.43;63.47
84483;BME280;74703;51.284;22.590;2024-01-10T04:29:19;101057.50;;;-10.44;63.46
84483;BME280;74703;51.284;22.590;2024-01-10T04:34:20;101047.38;;;-10.46;63.29
84483;BME280;74703;51.284;22.590;2024-01-10T04:39:20;101053.88;;;-10.49;64.28
84483;BME280;74703;51.284;22.590;2024-01-10T04:44:21;101045.34;;;-10.51;64.02
84483;BME280;74703;51.284;22.590;2024-01-10T04:49:21;101071.63;;;-10.33;62.56
84483;BME280;74703;51.284;22.590;2024-01-10T04:54:22;101044.00;;;-10.46;63.26
84483;BME280;74703;51.284;22.590;2024-01-10T04:59:22;101041.28;;;-10.49;62.15
84483;BME280;74703;51.284;22.590;2024-01-10T05:04:23;101038.00;;;-10.62;62.67
84483;BME280;74703;51.284;22.590;2024-01-10T05:09:23;101064.50;;;-10.53;63.34
84483;BME280;74703;51.284;22.590;2024-01-10T05:14:24;101053.66;;;-10.52;62.70
84483;BME280;74703;51.284;22.590;2024-01-10T05:19:24;101059.38;;;-10.55;63.00
84483;BME280;74703;51.284;22.590;2024-01-10T05:24:25;101046.97;;;-10.65;63.06
84483;BME280;74703;51.284;22.590;2024-01-10T05:29:25;101057.56;;;-10.71;64.00
84483;BME280;74703;51.284;22.590;2024-01-10T05:34:26;101025.03;;;-10.81;63.63
84483;BME280;74703;51.284;22.590;2024-01-10T05:39:27;101020.59;;;-10.85;63.11
84483;BME280;74703;51.284;22.590;2024-01-10T05:44:27;101037.63;;;-10.81;63.41
84483;BME280;74703;51.284;22.590;2024-01-10T05:49:28;101025.44;;;-10.88;63.71
84483;BME280;74703;51.284;22.590;2024-01-10T05:54:29;101005.13;;;-10.78;62.86
84483;BME280;74703;51.284;22.590;2024-01-10T05:59:30;101027.75;;;-10.65;62.56
84483;BME280;74703;51.284;22.590;2024-01-10T06:04:31;101021.94;;;-10.64;63.27
84483;BME280;74703;51.284;22.590;2024-01-10T06:09:32;101028.31;;;-10.55;63.97
84483;BME280;74703;51.284;22.590;2024-01-10T06:14:32;101009.59;;;-10.74;62.86
84483;BME280;74703;51.284;22.590;2024-01-10T06:19:33;101034.59;;;-10.62;63.51
84483;BME280;74703;51.284;22.590;2024-01-10T06:24:33;100999.34;;;-10.77;63.31
84483;BME280;74703;51.284;22.590;2024-01-10T06:29:34;101028.50;;;-10.66;64.14
84483;BME280;74703;51.284;22.590;2024-01-10T06:34:34;101026.75;;;-10.53;63.54
84483;BME280;74703;51.284;22.590;2024-01-10T06:39:35;101022.47;;;-10.41;63.15
84483;BME280;74703;51.284;22.590;2024-01-10T06:44:36;101021.78;;;-10.39;63.45
84483;BME280;74703;51.284;22.590;2024-01-10T06:49:36;101014.94;;;-10.41;63.47
84483;BME280;74703;51.284;22.590;2024-01-10T06:54:37;101032.75;;;-10.23;62.49
84483;BME280;74703;51.284;22.590;2024-01-10T06:59:38;101022.53;;;-10.26;63.11
84483;BME280;74703;51.284;22.590;2024-01-10T07:04:38;101032.63;;;-9.98;62.39
84483;BME280;74703;51.284;22.590;2024-01-10T07:09:39;101033.84;;;-9.92;61.88
84483;BME280;74703;51.284;22.590;2024-01-10T07:14:41;101038.19;;;-9.89;61.53
84483;BME280;74703;51.284;22.590;2024-01-10T07:19:41;101035.94;;;-9.84;61.76
84483;BME280;74703;51.284;22.590;2024-01-10T07:24:42;101051.56;;;-9.62;62.51
84483;BME280;74703;51.284;22.590;2024-01-10T07:29:42;101042.09;;;-9.51;60.90
84483;BME280;74703;51.284;22.590;2024-01-10T07:34:43;101064.06;;;-9.49;60.39
84483;BME280;74703;51.284;22.590;2024-01-10T07:39:44;101037.72;;;-9.54;60.82
84483;BME280;74703;51.284;22.590;2024-01-10T07:44:45;101059.22;;;-9.31;61.16
84483;BME280;74703;51.284;22.590;2024-01-10T07:49:45;101067.31;;;-9.22;60.54
84483;BME280;74703;51.284;22.590;2024-01-10T07:54:46;101056.38;;;-9.22;61.45
84483;BME280;74703;51.284;22.590;2024-01-10T07:59:47;101059.16;;;-9.03;60.14
84483;BME280;74703;51.284;22.590;2024-01-10T08:04:48;101045.22;;;-9.11;59.85
84483;BME280;74703;51.284;22.590;2024-01-10T08:09:48;101066.53;;;-8.76;59.97
84483;BME280;74703;51.284;22.590;2024-01-10T08:14:49;101080.63;;;-8.65;60.39
84483;BME280;74703;51.284;22.590;2024-01-10T08:19:50;101044.16;;;-8.85;59.77
84483;BME280;74703;51.284;22.590;2024-01-10T08:24:52;101077.91;;;-8.53;59.56
84483;BME280;74703;51.284;22.590;2024-01-10T08:29:53;101072.00;;;-8.37;58.46
84483;BME280;74703;51.284;22.590;2024-01-10T08:34:53;101071.78;;;-8.25;58.81
84483;BME280;74703;51.284;22.590;2024-01-10T08:39:54;101077.53;;;-8.28;59.19
84483;BME280;74703;51.284;22.590;2024-01-10T08:44:55;101078.03;;;-8.02;58.93
84483;BME280;74703;51.284;22.590;2024-01-10T08:49:56;101030.63;;;-7.92;58.08
84483;BME280;74703;51.284;22.590;2024-01-10T08:54:57;101043.31;;;-7.90;57.63
84483;BME280;74703;51.284;22.590;2024-01-10T08:59:57;101082.56;;;-7.64;57.21
84483;BME280;74703;51.284;22.590;2024-01-10T09:04:57;101066.63;;;-7.79;57.38
84483;BME280;74703;51.284;22.590;2024-01-10T09:09:58;101063.78;;;-7.69;57.79
84483;BME280;74703;51.284;22.590;2024-01-10T09:14:59;101046.22;;;-7.66;57.62
84483;BME280;74703;51.284;22.590;2024-01-10T09:19:59;101069.81;;;-7.33;57.22
84483;BME280;74703;51.284;22.590;2024-01-10T09:25:03;101050.53;;;-7.31;57.60
84483;BME280;74703;51.284;22.590;2024-01-10T09:30:06;101052.56;;;-7.07;56.60
84483;BME280;74703;51.284;22.590;2024-01-10T09:35:09;101053.41;;;-7.07;55.97
84483;BME280;74703;51.284;22.590;2024-01-10T09:40:14;101032.19;;;-6.93;55.76
84483;BME280;74703;51.284;22.590;2024-01-10T09:45:15;101015.97;;;-6.96;56.57
84483;BME280;74703;51.284;22.590;2024-01-10T09:50:17;101040.84;;;-6.70;55.74
84483;BME280;74703;51.284;22.590;2024-01-10T09:55:22;101018.72;;;-6.74;55.66
84483;BME280;74703;51.284;22.590;2024-01-10T10:00:26;101029.28;;;-6.47;54.86
84483;BME280;74703;51.284;22.590;2024-01-10T10:05:29;101019.97;;;-6.28;55.73
84483;BME280;74703;51.284;22.590;2024-01-10T10:10:30;101000.44;;;-6.11;54.54
84483;BME280;74703;51.284;22.590;2024-01-10T10:15:30;101008.75;;;-5.96;54.74
84483;BME280;74703;51.284;22.590;2024-01-10T10:20:31;101008.34;;;-5.84;54.53
84483;BME280;74703;51.284;22.590;2024-01-10T10:25:34;101012.63;;;-5.64;53.56
84483;BME280;74703;51.284;22.590;2024-01-10T10:30:35;101012.53;;;-5.46;53.44
84483;BME280;74703;51.284;22.590;2024-01-10T10:35:36;100992.94;;;-5.29;53.21
84483;BME280;74703;51.284;22.590;2024-01-10T10:40:36;100985.81;;;-5.17;51.74
84483;BME280;74703;51.284;22.590;2024-01-10T10:45:47;100980.88;;;-5.14;52.14
84483;BME280;74703;51.284;22.590;2024-01-10T10:51:04;100993.28;;;-4.78;51.56
84483;BME280;74703;51.284;22.590;2024-01-10T10:56:09;100976.03;;;-4.87;51.30
84483;BME280;74703;51.284;22.590;2024-01-10T11:01:11;100987.38;;;-4.77;52.21
84483;BME280;74703;51.284;22.590;2024-01-10T11:06:12;100966.78;;;-4.62;52.12
84483;BME280;74703;51.284;22.590;2024-01-10T11:16:55;100945.28;;;-4.72;51.63
84483;BME280;74703;51.284;22.590;2024-01-10T11:27:26;100917.00;;;-4.81;52.02
84483;BME280;74703;51.284;22.590;2024-01-10T11:32:27;100919.56;;;-4.57;52.49
84483;BME280;74703;51.284;22.590;2024-01-10T11:37:44;100903.00;;;-4.47;51.16
84483;BME280;74703;51.284;22.590;2024-01-10T11:42:46;100901.25;;;-4.48;52.27
84483;BME280;74703;51.284;22.590;2024-01-10T11:47:49;100907.63;;;-4.11;50.55
84483;BME280;74703;51.284;22.590;2024-01-10T11:52:55;100931.09;;;-3.95;49.98
84483;BME280;74703;51.284;22.590;2024-01-10T11:58:08;100908.66;;;-4.06;49.83
84483;BME280;74703;51.284;22.590;2024-01-10T12:03:11;100893.09;;;-4.16;49.61
84483;BME280;74703;51.284;22.590;2024-01-10T12:08:12;100892.22;;;-4.16;50.86
84483;BME280;74703;51.284;22.590;2024-01-10T12:13:14;100881.19;;;-4.17;50.57
84483;BME280;74703;51.284;22.590;2024-01-10T12:18:14;100862.31;;;-3.99;50.38
84483;BME280;74703;51.284;22.590;2024-01-10T12:23:15;100879.44;;;-3.94;51.12
84483;BME280;74703;51.284;22.590;2024-01-10T12:28:16;100900.88;;;-3.87;50.37
84483;BME280;74703;51.284;22.590;2024-01-10T12:33:17;100897.50;;;-3.86;51.17
84483;BME280;74703;51.284;22.590;2024-01-10T12:38:18;100876.22;;;-3.88;50.60
84483;BME280;74703;51.284;22.590;2024-01-10T12:43:18;100866.91;;;-3.87;50.83
84483;BME280;74703;51.284;22.590;2024-01-10T12:48:19;100862.34;;;-3.98;51.15
84483;BME280;74703;51.284;22.590;2024-01-10T12:53:20;100878.13;;;-3.82;51.66
84483;BME280;74703;51.284;22.590;2024-01-10T12:58:20;100881.47;;;-3.83;50.99
84483;BME280;74703;51.284;22.590;2024-01-10T13:03:21;100865.84;;;-3.94;52.59
84483;BME280;74703;51.284;22.590;2024-01-10T13:08:22;100877.97;;;-3.87;52.01
84483;BME280;74703;51.284;22.590;2024-01-10T13:13:22;100842.66;;;-4.03;51.64
84483;BME280;74703;51.284;22.590;2024-01-10T13:18:23;100863.03;;;-4.27;52.25
84483;BME280;74703;51.284;22.590;2024-01-10T13:23:25;100840.38;;;-4.45;52.72
84483;BME280;74703;51.284;22.590;2024-01-10T13:28:26;100840.78;;;-4.58;54.03
84483;BME280;74703;51.284;22.590;2024-01-10T13:33:27;100868.97;;;-4.51;54.56
84483;BME280;74703;51.284;22.590;2024-01-10T13:38:29;100868.59;;;-4.62;54.73
84483;BME280;74703;51.284;22.590;2024-01-10T13:43:30;100844.16;;;-4.82;54.27
84483;BME280;74703;51.284;22.590;2024-01-10T13:48:30;100861.88;;;-4.84;56.25
84483;BME280;74703;51.284;22.590;2024-01-10T13:53:31;100881.50;;;-4.79;55.61
84483;BME280;74703;51.284;22.590;2024-01-10T13:58:31;100862.50;;;-4.89;56.16
84483;BME280;74703;51.284;22.590;2024-01-10T14:03:32;100836.03;;;-5.18;56.38
84483;BME280;74703;51.284;22.590;2024-01-10T14:08:33;100845.75;;;-5.08;56.39
84483;BME280;74703;51.284;22.590;2024-01-10T14:13:34;100829.19;;;-5.42;57.20
84483;BME280;74703;51.284;22.590;2024-01-10T14:18:35;100860.41;;;-5.44;58.49
84483;BME280;74703;51.284;22.590;2024-01-10T14:23:36;100859.97;;;-5.55;59.16
84483;BME280;74703;51.284;22.590;2024-01-10T14:28:36;100843.66;;;-5.62;58.50
84483;BME280;74703;51.284;22.590;2024-01-10T14:33:37;100850.94;;;-5.69;59.67
84483;BME280;74703;51.284;22.590;2024-01-10T14:38:39;100830.41;;;-5.98;60.12
84483;BME280;74703;51.284;22.590;2024-01-10T14:43:40;100824.88;;;-6.09;60.48
84483;BME280;74703;51.284;22.590;2024-01-10T14:48:41;100838.94;;;-5.96;59.74
84483;BME280;74703;51.284;22.590;2024-01-10T14:53:41;100814.75;;;-6.09;58.93
84483;BME280;74703;51.284;22.590;2024-01-10T14:58:42;100820.53;;;-6.11;59.29
84483;BME280;74703;51.284;22.590;2024-01-10T15:03:43;100832.34;;;-6.12;60.53
84483;BME280;74703;51.284;22.590;2024-01-10T15:08:44;100833.41;;;-6.07;60.07
84483;BME280;74703;51.284;22.590;2024-01-10T15:13:44;100818.53;;;-6.39;60.18
84483;BME280;74703;51.284;22.590;2024-01-10T15:18:45;100812.91;;;-6.53;62.08
84483;BME280;74703;51.284;22.590;2024-01-10T15:23:45;100793.50;;;-6.53;61.38
84483;BME280;74703;51.284;22.590;2024-01-10T15:28:46;100781.91;;;-6.67;62.23
84483;BME280;74703;51.284;22.590;2024-01-10T15:33:48;100802.31;;;-6.64;61.47
84483;BME280;74703;51.284;22.590;2024-01-10T15:38:49;100773.94;;;-6.76;61.59
84483;BME280;74703;51.284;22.590;2024-01-10T15:43:49;100779.72;;;-6.59;61.58
84483;BME280;74703;51.284;22.590;2024-01-10T15:48:50;100761.53;;;-6.70;61.70
84483;BME280;74703;51.284;22.590;2024-01-10T15:53:51;100774.19;;;-6.30;61.02
84483;BME280;74703;51.284;22.590;2024-01-10T15:58:56;100756.16;;;-6.37;60.91
84483;BME280;74703;51.284;22.590;2024-01-10T16:03:57;100732.31;;;-6.42;60.15
84483;BME280;74703;51.284;22.590;2024-01-10T16:08:58;100746.06;;;-6.36;59.96
84483;BME280;74703;51.284;22.590;2024-01-10T16:13:58;100750.63;;;-6.29;59.63
84483;BME280;74703;51.284;22.590;2024-01-10T16:19:03;100726.75;;;-6.34;58.66
84483;BME280;74703;51.284;22.590;2024-01-10T16:24:06;100718.22;;;-6.36;58.89
84483;BME280;74703;51.284;22.590;2024-01-10T16:29:08;100733.63;;;-6.31;58.90
84483;BME280;74703;51.284;22.590;2024-01-10T16:34:09;100727.63;;;-6.33;59.51
84483;BME280;74703;51.284;22.590;2024-01-10T16:39:09;100741.13;;;-6.33;58.90
84483;BME280;74703;51.284;22.590;2024-01-10T16:44:10;100719.69;;;-6.62;58.70
84483;BME280;74703;51.284;22.590;2024-01-10T16:49:10;100742.88;;;-6.72;61.07
84483;BME280;74703;51.284;22.590;2024-01-10T16:54:11;100731.13;;;-6.91;61.93
84483;BME280;74703;51.284;22.590;2024-01-10T16:59:11;100715.75;;;-7.15;62.92
84483;BME280;74703;51.284;22.590;2024-01-10T17:04:12;100710.81;;;-7.31;64.42
84483;BME280;74703;51.284;22.590;2024-01-10T17:09:13;100723.91;;;-7.40;64.06
84483;BME280;74703;51.284;22.590;2024-01-10T17:14:14;100725.81;;;-7.54;65.66
84483;BME280;74703;51.284;22.590;2024-01-10T17:19:18;100737.66;;;-7.53;64.99
84483;BME280;74703;51.284;22.590;2024-01-10T17:24:18;100720.75;;;-7.54;64.66
84483;BME280;74703;51.284;22.590;2024-01-10T17:29:19;100711.81;;;-7.47;64.49
84483;BME280;74703;51.284;22.590;2024-01-10T17:34:20;100668.88;;;-7.46;64.70
84483;BME280;74703;51.284;22.590;2024-01-10T17:39:20;100684.31;;;-7.20;63.05
84483;BME280;74703;51.284;22.590;2024-01-10T17:44:21;100650.66;;;-7.19;62.78
84483;BME280;74703;51.284;22.590;2024-01-10T17:49:21;100638.66;;;-7.04;61.88
84483;BME280;74703;51.284;22.590;2024-01-10T17:54:22;100648.19;;;-6.77;60.15
84483;BME280;74703;51.284;22.590;2024-01-10T17:59:22;100681.28;;;-6.52;59.78
84483;BME280;74703;51.284;22.590;2024-01-10T18:04:23;100682.75;;;-6.57;60.55
84483;BME280;74703;51.284;22.590;2024-01-10T18:09:23;100666.59;;;-6.60;60.42
84483;BME280;74703;51.284;22.590;2024-01-10T18:14:24;100675.03;;;-6.60;60.04
84483;BME280;74703;51.284;22.590;2024-01-10T18:19:24;100656.44;;;-6.81;60.85
84483;BME280;74703;51.284;22.590;2024-01-10T18:24:25;100667.16;;;-6.87;61.61
84483;BME280;74703;51.284;22.590;2024-01-10T18:29:26;100608.84;;;-7.30;61.68
84483;BME280;74703;51.284;22.590;2024-01-10T18:34:26;100651.56;;;-7.17;62.02
84483;BME280;74703;51.284;22.590;2024-01-10T18:39:27;100657.97;;;-7.25;62.58
84483;BME280;74703;51.284;22.590;2024-01-10T18:44:27;100650.19;;;-7.30;62.08
84483;BME280;74703;51.284;22.590;2024-01-10T18:49:28;100655.44;;;-7.45;62.98
84483;BME280;74703;51.284;22.590;2024-01-10T18:54:28;100659.84;;;-7.41;63.44
84483;BME280;74703;51.284;22.590;2024-01-10T18:59:29;100667.97;;;-7.28;63.59
84483;BME280;74703;51.284;22.590;2024-01-10T19:04:29;100658.91;;;-7.43;63.20
84483;BME280;74703;51.284;22.590;2024-01-10T19:09:30;100641.94;;;-7.65;63.83
84483;BME280;74703;51.284;22.590;2024-01-10T19:14:31;100641.53;;;-7.54;62.75
84483;BME280;74703;51.284;22.590;2024-01-10T19:19:33;100656.50;;;-7.40;62.94
84483;BME280;74703;51.284;22.590;2024-01-10T19:24:39;100655.38;;;-7.46;62.33
84483;BME280;74703;51.284;22.590;2024-01-10T19:29:39;100660.38;;;-7.28;62.07
84483;BME280;74703;51.284;22.590;2024-01-10T19:34:40;100656.03;;;-7.31;61.45
84483;BME280;74703;51.284;22.590;2024-01-10T19:39:40;100631.88;;;-7.24;61.01
84483;BME280;74703;51.284;22.590;2024-01-10T19:44:41;100613.31;;;-7.25;61.23
84483;BME280;74703;51.284;22.590;2024-01-10T19:49:42;100610.09;;;-7.21;60.90
84483;BME280;74703;51.284;22.590;2024-01-10T19:54:42;100615.25;;;-7.19;61.13
84483;BME280;74703;51.284;22.590;2024-01-10T19:59:43;100613.88;;;-7.11;60.80
84483;BME280;74703;51.284;22.590;2024-01-10T20:04:43;100606.06;;;-6.96;60.06
84483;BME280;74703;51.284;22.590;2024-01-10T20:09:44;100576.34;;;-7.02;59.44
84483;BME280;74703;51.284;22.590;2024-01-10T20:14:45;100579.66;;;-7.03;59.97
84483;BME280;74703;51.284;22.590;2024-01-10T20:19:46;100578.44;;;-6.92;59.07
84483;BME280;74703;51.284;22.590;2024-01-10T20:24:48;100573.13;;;-6.77;58.27
84483;BME280;74703;51.284;22.590;2024-01-10T20:29:49;100573.50;;;-6.88;58.31
84483;BME280;74703;51.284;22.590;2024-01-10T20:34:51;100564.78;;;-6.74;58.16
84483;BME280;74703;51.284;22.590;2024-01-10T20:39:53;100559.41;;;-6.61;57.42
84483;BME280;74703;51.284;22.590;2024-01-10T20:44:55;100568.41;;;-6.24;57.01
84483;BME280;74703;51.284;22.590;2024-01-10T20:49:57;100569.16;;;-6.04;55.73
84483;BME280;74703;51.284;22.590;2024-01-10T20:54:59;100566.13;;;-5.94;54.94
84483;BME280;74703;51.284;22.590;2024-01-10T21:00:00;100550.91;;;-5.95;55.33
84483;BME280;74703;51.284;22.590;2024-01-10T21:05:06;100560.00;;;-5.75;54.86
84483;BME280;74703;51.284;22.590;2024-01-10T21:10:07;100551.53;;;-5.77;55.49
84483;BME280;74703;51.284;22.590;2024-01-10T21:15:09;100541.69;;;-5.92;55.22
84483;BME280;74703;51.284;22.590;2024-01-10T21:20:09;100529.88;;;-5.93;54.94
84483;BME280;74703;51.284;22.590;2024-01-10T21:25:10;100547.44;;;-5.97;53.96
84483;BME280;74703;51.284;22.590;2024-01-10T21:30:11;100529.34;;;-6.07;54.33
84483;BME280;74703;51.284;22.590;2024-01-10T21:35:12;100523.69;;;-6.00;54.04
84483;BME280;74703;51.284;22.590;2024-01-10T21:40:13;100539.59;;;-6.04;55.08
84483;BME280;74703;51.284;22.590;2024-01-10T21:45:14;100531.66;;;-5.89;54.33
84483;BME280;74703;51.284;22.590;2024-01-10T21:50:16;100527.88;;;-6.02;54.32
84483;BME280;74703;51.284;22.590;2024-01-10T21:55:18;100531.78;;;-5.86;54.41
84483;BME280;74703;51.284;22.590;2024-01-10T22:00:20;100517.41;;;-5.85;55.24
84483;BME280;74703;51.284;22.590;2024-01-10T22:05:22;100492.53;;;-5.97;55.28
84483;BME280;74703;51.284;22.590;2024-01-10T22:10:24;100468.75;;;-6.01;54.16
84483;BME280;74703;51.284;22.590;2024-01-10T22:15:25;100482.47;;;-5.95;54.91
84483;BME280;74703;51.284;22.590;2024-01-10T22:20:27;100480.91;;;-5.90;54.25
84483;BME280;74703;51.284;22.590;2024-01-10T22:25:28;100465.91;;;-6.10;53.87
84483;BME280;74703;51.284;22.590;2024-01-10T22:30:28;100437.66;;;-6.20;53.77
84483;BME280;74703;51.284;22.590;2024-01-10T22:35:29;100426.50;;;-6.26;53.09
84483;BME280;74703;51.284;22.590;2024-01-10T22:40:30;100447.56;;;-6.27;53.65
84483;BME280;74703;51.284;22.590;2024-01-10T22:45:30;100423.03;;;-6.52;54.72
84483;BME280;74703;51.284;22.590;2024-01-10T22:50:30;100421.53;;;-6.47;53.92
84483;BME280;74703;51.284;22.590;2024-01-10T22:55:31;100421.31;;;-6.53;53.41
84483;BME280;74703;51.284;22.590;2024-01-10T23:00:32;100412.19;;;-6.72;54.61
84483;BME280;74703;51.284;22.590;2024-01-10T23:05:32;100403.22;;;-6.86;54.19
84483;BME280;74703;51.284;22.590;2024-01-10T23:10:34;100411.25;;;-6.74;54.37
84483;BME280;74703;51.284;22.590;2024-01-10T23:15:34;100371.28;;;-6.82;54.08
84483;BME280;74703;51.284;22.590;2024-01-10T23:20:35;100379.69;;;-6.83;54.44
84483;BME280;74703;51.284;22.590;2024-01-10T23:25:36;100346.84;;;-6.82;53.20
84483;BME280;74703;51.284;22.590;2024-01-10T23:30:36;100321.38;;;-6.86;53.37
84483;BME280;74703;51.284;22.590;2024-01-10T23:35:37;100340.06;;;-6.83;54.20
84483;BME280;74703;51.284;22.590;2024-01-10T23:40:37;100344.06;;;-6.89;53.24
84483;BME280;74703;51.284;22.590;2024-01-10T23:45:40;100298.19;;;-6.99;54.57
84483;BME280;74703;51.284;22.590;2024-01-10T23:50:41;100322.06;;;-6.91;54.62
84483;BME280;74703;51.284;22.590;2024-01-10T23:55:42;100321.56;;;-7.04;55.07
